createdAt,value
2023-05-04T00:02:26.425Z,15.73
2023-05-04T00:04:53.929Z,13.60
2023-05-04T00:07:21.108Z,13.97
2023-05-04T00:09:47.935Z,17.50
2023-05-04T00:12:14.923Z,14.07
2023-05-04T00:14:41.889Z,15.77
2023-05-04T00:17:12.720Z,16.00
2023-05-04T00:19:42.090Z,13.90
2023-05-04T00:22:09.310Z,14.23
2023-05-04T00:24:36.371Z,16.50
2023-05-04T00:27:03.917Z,13.23
2023-05-04T00:29:31.144Z,16.83
2023-05-04T00:31:58.148Z,16.30
2023-05-04T00:34:25.075Z,17.67
2023-05-04T00:36:51.805Z,19.97
2023-05-04T00:39:18.564Z,19.93
2023-05-04T00:41:45.914Z,16.57
2023-05-04T00:44:13.023Z,16.90
2023-05-04T00:46:40.522Z,13.97
2023-05-04T00:49:07.994Z,16.73
2023-05-04T00:51:35.962Z,21.57
2023-05-04T00:54:05.691Z,18.67
2023-05-04T00:56:33.748Z,16.67
2023-05-04T00:59:00.571Z,19.67
2023-05-04T01:01:27.371Z,15.83
2023-05-04T01:03:55.912Z,19.17
2023-05-04T01:06:39.228Z,16.97
2023-05-04T01:09:16.451Z,19.17
2023-05-04T01:12:14.532Z,18.47
2023-05-04T01:14:45.830Z,17.70
2023-05-04T01:17:12.825Z,20.53
2023-05-04T01:19:42.658Z,17.40
2023-05-04T01:22:09.640Z,18.00
2023-05-04T01:24:36.646Z,16.27
2023-05-04T01:27:05.476Z,16.00
2023-05-04T01:29:38.924Z,17.60
2023-05-04T01:32:06.659Z,15.03
2023-05-04T01:34:35.479Z,15.40
2023-05-04T01:37:02.496Z,20.43
2023-05-04T01:39:30.224Z,16.60
2023-05-04T01:41:57.224Z,17.07
2023-05-04T01:44:24.258Z,18.20
2023-05-04T01:46:51.030Z,16.77
2023-05-04T01:49:17.800Z,15.17
2023-05-04T01:51:46.955Z,16.43
2023-05-04T01:54:13.819Z,16.00
2023-05-04T01:56:41.468Z,17.53
2023-05-04T01:59:08.389Z,15.80
2023-05-04T02:01:35.138Z,16.97
2023-05-04T02:04:02.180Z,17.90
2023-05-04T02:06:29.132Z,15.70
2023-05-04T02:08:56.099Z,16.33
2023-05-04T02:11:22.973Z,15.60
2023-05-04T02:13:49.729Z,16.40
2023-05-04T02:16:17.119Z,16.57
2023-05-04T02:18:43.925Z,14.10
2023-05-04T02:21:10.719Z,16.70
2023-05-04T02:23:37.412Z,16.13
2023-05-04T02:26:04.145Z,14.63
2023-05-04T02:28:31.042Z,16.60
2023-05-04T02:30:57.796Z,15.13
2023-05-04T02:33:24.567Z,18.37
2023-05-04T02:35:51.914Z,15.93
2023-05-04T02:38:18.729Z,16.37
2023-05-04T02:40:45.523Z,16.57
2023-05-04T02:43:12.352Z,16.10
2023-05-04T02:45:39.143Z,19.20
2023-05-04T02:48:06.138Z,17.17
2023-05-04T02:50:33.975Z,14.20
2023-05-04T02:53:00.807Z,16.30
2023-05-04T02:55:27.646Z,14.87
2023-05-04T02:57:54.404Z,18.67
2023-05-04T03:00:21.628Z,13.43
2023-05-04T03:02:48.458Z,17.27
2023-05-04T03:05:15.725Z,15.70
2023-05-04T03:07:42.475Z,15.13
2023-05-04T03:10:09.845Z,18.37
2023-05-04T03:12:36.739Z,13.27
2023-05-04T03:15:03.706Z,18.43
2023-05-04T03:17:30.437Z,18.20
2023-05-04T03:19:57.241Z,14.87
2023-05-04T03:22:24.083Z,15.67
2023-05-04T03:24:51.398Z,18.97
2023-05-04T03:27:18.142Z,14.93
2023-05-04T03:29:44.970Z,14.83
2023-05-04T03:32:13.503Z,14.20
2023-05-04T03:34:40.607Z,11.73
2023-05-04T03:37:08.189Z,16.57
2023-05-04T03:39:34.983Z,13.07
2023-05-04T03:42:02.655Z,15.87
2023-05-04T03:44:29.511Z,14.67
2023-05-04T03:46:56.442Z,14.07
2023-05-04T03:49:23.177Z,18.33
2023-05-04T03:51:50.026Z,14.60
2023-05-04T03:54:16.990Z,15.97
2023-05-04T03:56:43.694Z,17.37
2023-05-04T03:59:10.462Z,16.33
2023-05-04T04:01:37.310Z,16.10
2023-05-04T04:04:04.446Z,13.80
2023-05-04T04:06:31.980Z,15.10
2023-05-04T04:08:58.742Z,14.27
2023-05-04T04:11:26.409Z,13.97
2023-05-04T04:13:53.426Z,15.53
2023-05-04T04:16:21.411Z,15.23
2023-05-04T04:18:48.769Z,14.43
2023-05-04T04:21:15.618Z,14.77
2023-05-04T04:23:42.454Z,14.30
2023-05-04T04:26:09.407Z,17.23
2023-05-04T04:28:36.200Z,12.70
2023-05-04T04:31:03.831Z,14.47
2023-05-04T04:33:30.889Z,16.90
2023-05-04T04:35:57.689Z,15.10
2023-05-04T04:38:24.979Z,15.97
2023-05-04T04:40:52.107Z,13.40
2023-05-04T04:43:18.832Z,21.20
2023-05-04T04:45:46.846Z,15.80
2023-05-04T04:48:14.208Z,16.70
2023-05-04T04:50:41.101Z,18.30
2023-05-04T04:53:07.862Z,18.13
2023-05-04T04:55:34.910Z,13.03
2023-05-04T04:58:01.768Z,14.63
2023-05-04T05:00:30.807Z,17.13
2023-05-04T05:02:57.680Z,14.97
2023-05-04T05:05:24.515Z,17.67
2023-05-04T05:07:51.475Z,14.83
2023-05-04T05:10:18.584Z,16.30
2023-05-04T05:12:45.642Z,16.03
2023-05-04T05:15:12.855Z,14.20
2023-05-04T05:17:39.828Z,20.13
2023-05-04T05:20:11.287Z,19.23
2023-05-04T05:22:38.871Z,16.60
2023-05-04T05:25:07.637Z,18.90
2023-05-04T05:27:35.423Z,17.17
2023-05-04T05:30:03.574Z,16.83
2023-05-04T05:32:30.643Z,15.37
2023-05-04T05:34:57.721Z,16.63
2023-05-04T05:37:25.097Z,15.83
2023-05-04T05:39:51.889Z,17.63
2023-05-04T05:42:19.105Z,20.67
2023-05-04T05:44:45.886Z,17.67
2023-05-04T05:47:12.783Z,15.17
2023-05-04T05:49:39.469Z,19.07
2023-05-04T05:52:06.300Z,15.20
2023-05-04T05:54:34.447Z,14.80
2023-05-04T05:57:01.855Z,16.17
2023-05-04T05:59:28.798Z,15.10
2023-05-04T06:01:55.586Z,19.50
2023-05-04T06:04:22.418Z,17.23
2023-05-04T06:06:49.244Z,16.13
2023-05-04T06:09:15.982Z,13.50
2023-05-04T06:11:42.885Z,12.47
2023-05-04T06:14:09.690Z,13.27
2023-05-04T06:16:36.453Z,12.10
2023-05-04T06:19:03.414Z,13.10
2023-05-04T06:21:30.232Z,13.97
2023-05-04T06:23:56.993Z,13.60
2023-05-04T06:26:23.886Z,11.47
2023-05-04T06:28:50.566Z,10.23
2023-05-04T06:31:18.410Z,11.63
2023-05-04T06:33:45.191Z,13.27
2023-05-04T06:36:13.048Z,13.23
2023-05-04T06:38:39.917Z,11.50
2023-05-04T06:41:06.829Z,14.17
2023-05-04T06:43:36.506Z,14.13
2023-05-04T06:46:03.883Z,11.63
2023-05-04T06:48:31.857Z,13.03
2023-05-04T06:51:00.746Z,17.17
2023-05-04T06:53:32.926Z,12.13
2023-05-04T06:56:02.350Z,12.83
2023-05-04T06:58:29.136Z,12.47
2023-05-04T07:00:55.991Z,14.67
2023-05-04T07:03:22.810Z,11.67
2023-05-04T07:05:51.088Z,14.40
2023-05-04T07:08:18.095Z,11.97
2023-05-04T07:10:45.094Z,9.90
2023-05-04T07:13:12.143Z,10.40
2023-05-04T07:15:39.453Z,20.00
2023-05-04T07:18:06.216Z,11.87
2023-05-04T07:20:33.027Z,12.27
2023-05-04T07:22:59.817Z,12.10
2023-05-04T07:25:27.515Z,10.47
2023-05-04T07:27:54.417Z,7.33
2023-05-04T07:30:22.029Z,11.73
2023-05-04T07:32:51.620Z,11.63
2023-05-04T07:35:18.765Z,7.63
2023-05-04T07:37:46.482Z,11.83
2023-05-04T07:40:14.776Z,10.37
2023-05-04T07:42:42.119Z,11.60
2023-05-04T07:45:09.876Z,10.30
2023-05-04T07:47:37.402Z,10.07
2023-05-04T07:50:06.297Z,9.87
2023-05-04T07:52:33.621Z,8.20
2023-05-04T07:55:00.764Z,7.50
2023-05-04T07:57:31.436Z,9.53
2023-05-04T08:00:01.778Z,9.67
2023-05-04T08:02:28.579Z,8.63
2023-05-04T08:04:58.037Z,8.47
2023-05-04T08:07:27.748Z,8.27
2023-05-04T08:09:55.865Z,8.63
2023-05-04T08:12:24.071Z,10.43
2023-05-04T08:14:51.599Z,9.87
2023-05-04T08:17:21.242Z,9.33
2023-05-04T08:19:47.976Z,6.90
2023-05-04T08:22:14.786Z,8.03
2023-05-04T08:24:41.958Z,10.13
2023-05-04T08:27:09.280Z,9.73
2023-05-04T08:29:37.457Z,12.33
2023-05-04T08:32:04.835Z,9.40
2023-05-04T08:34:31.658Z,12.17
2023-05-04T08:36:58.628Z,9.27
2023-05-04T08:39:25.419Z,14.50
2023-05-04T08:41:52.131Z,8.10
2023-05-04T08:44:19.196Z,10.70
2023-05-04T08:46:52.456Z,9.13
2023-05-04T08:49:20.697Z,9.93
2023-05-04T08:51:50.429Z,8.10
2023-05-04T08:54:18.566Z,8.70
2023-05-04T08:56:47.296Z,9.57
2023-05-04T08:59:21.988Z,8.83
2023-05-04T09:01:54.591Z,9.37
2023-05-04T09:04:22.718Z,12.10
2023-05-04T09:06:49.923Z,9.07
2023-05-04T09:09:17.004Z,9.30
2023-05-04T09:11:44.402Z,10.03
2023-05-04T09:14:11.319Z,7.57
2023-05-04T09:16:38.748Z,10.37
2023-05-04T09:19:17.764Z,8.60
2023-05-04T09:21:44.725Z,9.07
2023-05-04T09:24:12.716Z,9.77
2023-05-04T09:26:39.594Z,7.73
2023-05-04T09:29:16.157Z,13.80
2023-05-04T09:31:48.013Z,8.33
2023-05-04T09:34:15.223Z,10.07
2023-05-04T09:36:42.298Z,12.03
2023-05-04T09:39:15.009Z,8.40
2023-05-04T09:41:43.419Z,8.03
2023-05-04T09:44:25.942Z,7.80
2023-05-04T09:46:55.896Z,10.70
2023-05-04T09:49:36.933Z,9.67
2023-05-04T09:52:05.983Z,9.00
2023-05-04T09:54:39.019Z,9.40
2023-05-04T09:57:15.710Z,10.37
2023-05-04T09:59:43.482Z,10.23
2023-05-04T10:02:22.630Z,8.05
2023-05-04T10:04:51.817Z,11.55
2023-05-04T10:07:19.438Z,13.07
2023-05-04T10:09:48.006Z,8.50
2023-05-04T10:12:14.927Z,9.38
2023-05-04T10:14:42.988Z,12.90
2023-05-04T10:17:47.792Z,11.45
2023-05-04T10:20:25.802Z,10.52
2023-05-04T10:22:55.629Z,14.13
2023-05-04T10:25:43.900Z,11.20
2023-05-04T10:28:27.270Z,8.70
2023-05-04T10:30:58.390Z,10.15
2023-05-04T10:33:39.324Z,8.85
2023-05-04T10:36:07.102Z,7.82
2023-05-04T10:38:34.367Z,9.45
2023-05-04T10:41:01.601Z,9.02
2023-05-04T10:43:32.525Z,10.27
2023-05-04T10:46:01.302Z,11.27
2023-05-04T10:48:35.697Z,8.93
2023-05-04T10:51:02.622Z,10.90
2023-05-04T10:53:35.571Z,8.65
2023-05-04T10:56:02.828Z,9.32
2023-05-04T10:58:30.063Z,9.65
2023-05-04T11:00:57.066Z,10.43
2023-05-04T11:03:25.087Z,9.50
2023-05-04T11:05:54.816Z,13.35
2023-05-04T11:08:26.121Z,11.70
2023-05-04T11:11:06.895Z,11.00
2023-05-04T11:13:34.891Z,9.55
2023-05-04T11:16:02.118Z,10.80
2023-05-04T11:18:31.072Z,15.57
2023-05-04T11:20:58.524Z,11.80
2023-05-04T11:23:26.152Z,11.13
2023-05-04T11:25:53.622Z,12.35
2023-05-04T11:28:31.231Z,8.68
2023-05-04T11:30:58.659Z,8.50
2023-05-04T11:33:25.602Z,7.57
2023-05-04T11:36:02.346Z,10.90
2023-05-04T11:38:29.713Z,10.45
2023-05-04T11:40:56.557Z,12.52
2023-05-04T11:43:23.734Z,11.55
2023-05-04T11:45:51.962Z,11.55
2023-05-04T11:48:19.018Z,8.55
2023-05-04T11:50:47.546Z,9.70
2023-05-04T11:53:21.525Z,13.20
2023-05-04T11:55:48.548Z,13.43
2023-05-04T11:58:15.791Z,10.65
2023-05-04T12:00:43.873Z,9.65
2023-05-04T12:03:48.011Z,7.03
2023-05-04T12:06:18.647Z,10.52
2023-05-04T12:08:45.480Z,12.20
2023-05-04T12:11:25.661Z,9.95
2023-05-04T12:14:06.995Z,9.70
2023-05-04T12:16:34.439Z,7.75
2023-05-04T12:19:05.248Z,8.55
2023-05-04T12:21:33.222Z,9.57
2023-05-04T12:24:00.543Z,11.55
2023-05-04T12:26:27.813Z,9.65
2023-05-04T12:28:54.769Z,13.35
2023-05-04T12:31:23.707Z,10.13
2023-05-04T12:33:51.986Z,7.90
2023-05-04T12:36:18.967Z,8.00
2023-05-04T12:38:48.228Z,11.35
2023-05-04T12:41:15.176Z,10.15
2023-05-04T12:43:43.046Z,8.07
2023-05-04T12:46:10.051Z,10.43
2023-05-04T12:48:39.676Z,13.55
2023-05-04T12:51:06.545Z,9.88
2023-05-04T12:53:33.376Z,8.65
2023-05-04T12:56:01.586Z,8.60
2023-05-04T12:58:28.535Z,8.85
2023-05-04T13:00:56.606Z,9.77
2023-05-04T13:03:23.630Z,8.35
2023-05-04T13:05:50.607Z,7.00
2023-05-04T13:08:19.636Z,10.15
2023-05-04T13:10:47.248Z,7.93
2023-05-04T13:13:17.344Z,8.95
2023-05-04T13:15:45.208Z,7.43
2023-05-04T13:18:14.968Z,8.80
2023-05-04T13:20:42.107Z,10.27
2023-05-04T13:23:08.912Z,8.93
2023-05-04T13:25:35.644Z,8.05
2023-05-04T13:28:02.714Z,8.02
2023-05-04T13:30:30.095Z,10.75
2023-05-04T13:32:57.042Z,7.57
2023-05-04T13:35:24.108Z,9.38
2023-05-04T13:37:51.505Z,16.58
2023-05-04T13:40:18.437Z,9.85
2023-05-04T13:42:45.269Z,9.98
2023-05-04T13:45:12.213Z,9.20
2023-05-04T13:47:40.389Z,7.95
2023-05-04T13:50:08.090Z,8.20
2023-05-04T13:52:35.241Z,9.15
2023-05-04T13:55:02.607Z,10.00
2023-05-04T13:57:29.811Z,11.98
2023-05-04T14:00:05.619Z,7.13
2023-05-04T14:02:33.974Z,8.73
2023-05-04T14:05:01.417Z,8.18
2023-05-04T14:07:28.258Z,11.10
2023-05-04T14:09:58.524Z,9.05
2023-05-04T14:12:25.370Z,7.50
2023-05-04T14:14:52.093Z,8.02
2023-05-04T14:17:18.843Z,10.35
2023-05-04T14:19:45.871Z,8.50
2023-05-04T14:22:12.660Z,10.38
2023-05-04T14:24:39.979Z,9.77
2023-05-04T14:27:06.725Z,12.13
2023-05-04T14:29:34.350Z,12.13
2023-05-04T14:32:01.403Z,12.80
2023-05-04T14:34:31.487Z,8.88
2023-05-04T14:36:58.339Z,9.05
2023-05-04T14:39:25.110Z,10.52
2023-05-04T14:41:55.217Z,8.75
2023-05-04T14:44:26.249Z,9.65
2023-05-04T14:46:53.214Z,8.65
2023-05-04T14:49:35.033Z,6.70
2023-05-04T14:52:04.010Z,10.52
2023-05-04T14:54:30.857Z,9.02
2023-05-04T14:56:59.089Z,9.35
2023-05-04T14:59:28.867Z,6.97
2023-05-04T15:01:57.473Z,7.45
2023-05-04T15:04:24.372Z,7.97
2023-05-04T15:06:52.418Z,9.75
2023-05-04T15:09:19.200Z,5.68
2023-05-04T15:11:46.227Z,8.05
2023-05-04T15:14:13.487Z,8.10
2023-05-04T15:16:40.344Z,8.43
2023-05-04T15:19:07.606Z,8.70
2023-05-04T15:21:35.209Z,6.10
2023-05-04T15:24:05.475Z,8.48
2023-05-04T15:26:35.924Z,9.02
2023-05-04T15:29:03.042Z,5.50
2023-05-04T15:31:29.852Z,5.45
2023-05-04T15:33:56.600Z,6.65
2023-05-04T15:36:24.453Z,6.20
2023-05-04T15:38:51.223Z,5.97
2023-05-04T15:41:18.085Z,7.32
2023-05-04T15:43:44.913Z,4.38
2023-05-04T15:46:11.741Z,5.40
2023-05-04T15:48:38.570Z,5.90
2023-05-04T15:51:14.940Z,6.60
2023-05-04T15:53:41.664Z,5.35
2023-05-04T15:56:08.795Z,3.90
2023-05-04T15:58:35.753Z,5.25
2023-05-04T16:01:04.208Z,8.07
2023-05-04T16:03:32.159Z,5.18
2023-05-04T16:05:59.163Z,5.40
2023-05-04T16:08:26.161Z,5.63
2023-05-04T16:10:53.586Z,6.13
2023-05-04T16:13:21.848Z,7.72
2023-05-04T16:15:52.270Z,3.50
2023-05-04T16:18:19.367Z,3.92
2023-05-04T16:20:49.669Z,4.60
2023-05-04T16:23:18.036Z,5.93
2023-05-04T16:25:44.868Z,5.65
2023-05-04T16:28:14.900Z,4.57
2023-05-04T16:30:42.893Z,2.70
2023-05-04T16:33:12.455Z,4.72
2023-05-04T16:35:39.271Z,5.25
2023-05-04T16:38:06.177Z,4.05
2023-05-04T16:40:33.018Z,4.43
2023-05-04T16:43:00.169Z,4.15
2023-05-04T16:45:31.228Z,3.75
2023-05-04T16:47:58.901Z,7.03
2023-05-04T16:50:25.837Z,4.78
2023-05-04T16:52:52.601Z,5.75
2023-05-04T16:55:20.306Z,7.38
2023-05-04T16:57:47.769Z,6.47
2023-05-04T17:00:15.047Z,3.72
2023-05-04T17:02:42.393Z,4.10
2023-05-04T17:05:10.565Z,5.28
2023-05-04T17:07:41.968Z,4.53
2023-05-04T17:10:09.527Z,4.18
2023-05-04T17:12:36.474Z,4.40
2023-05-04T17:15:03.837Z,5.00
2023-05-04T17:17:33.345Z,4.15
2023-05-04T17:20:00.925Z,4.47
2023-05-04T17:22:27.754Z,5.40
2023-05-04T17:24:57.738Z,4.05
2023-05-04T17:27:24.510Z,5.68
2023-05-04T17:29:51.713Z,5.97
2023-05-04T17:32:18.544Z,7.78
2023-05-04T17:34:46.618Z,3.53
2023-05-04T17:37:13.451Z,2.92
2023-05-04T17:39:40.311Z,5.18
2023-05-04T17:42:07.306Z,6.85
2023-05-04T17:44:36.973Z,3.45
2023-05-04T17:47:03.881Z,3.35
2023-05-04T17:49:31.222Z,5.95
2023-05-04T17:51:58.136Z,4.82
2023-05-04T17:54:24.951Z,5.70
2023-05-04T17:56:51.785Z,4.68
2023-05-04T17:59:18.629Z,3.50
2023-05-04T18:01:45.879Z,6.05
2023-05-04T18:04:12.798Z,4.72
2023-05-04T18:06:39.567Z,4.28
2023-05-04T18:09:06.562Z,3.25
2023-05-04T18:11:33.402Z,3.75
2023-05-04T18:14:00.179Z,3.67
2023-05-04T18:16:27.029Z,4.60
2023-05-04T18:18:53.899Z,5.00
2023-05-04T18:21:20.897Z,3.67
2023-05-04T18:23:47.741Z,3.87
2023-05-04T18:26:22.789Z,4.77
2023-05-04T18:28:50.163Z,5.90
2023-05-04T18:31:17.483Z,5.27
2023-05-04T18:33:46.573Z,2.97
2023-05-04T18:36:13.406Z,5.40
2023-05-04T18:38:40.990Z,5.77
2023-05-04T18:41:11.975Z,6.83
2023-05-04T18:43:38.749Z,4.03
2023-05-04T18:46:08.633Z,5.50
2023-05-04T18:48:35.411Z,6.73
2023-05-04T18:51:02.767Z,9.73
2023-05-04T18:53:29.835Z,9.97
2023-05-04T18:56:04.267Z,7.33
2023-05-04T18:58:31.337Z,7.63
2023-05-04T19:00:58.452Z,3.53
2023-05-04T19:03:25.716Z,5.53
2023-05-04T19:05:56.176Z,8.00
2023-05-04T19:08:23.194Z,5.30
2023-05-04T19:10:50.522Z,6.67
2023-05-04T19:13:17.588Z,7.27
2023-05-04T19:15:44.654Z,8.10
2023-05-04T19:18:12.040Z,8.43
2023-05-04T19:20:42.609Z,7.47
2023-05-04T19:23:10.396Z,7.33
2023-05-04T19:25:37.382Z,6.70
2023-05-04T19:28:08.700Z,8.13
2023-05-04T19:30:39.595Z,12.90
2023-05-04T19:33:08.329Z,11.30
2023-05-04T19:35:35.740Z,10.67
2023-05-04T19:38:02.768Z,12.23
2023-05-04T19:40:29.689Z,9.67
2023-05-04T19:42:56.578Z,10.30
2023-05-04T19:45:23.869Z,10.60
2023-05-04T19:47:51.053Z,16.77
2023-05-04T19:50:17.929Z,12.30
2023-05-04T19:52:44.895Z,16.63
2023-05-04T19:55:11.761Z,16.00
2023-05-04T19:57:38.616Z,13.27
2023-05-04T20:00:06.530Z,16.43
2023-05-04T20:02:33.421Z,12.10
2023-05-04T20:05:00.395Z,12.03
2023-05-04T20:07:27.271Z,13.43
2023-05-04T20:09:54.377Z,11.40
2023-05-04T20:12:21.553Z,7.90
2023-05-04T20:14:48.342Z,13.73
2023-05-04T20:17:15.654Z,7.97
2023-05-04T20:19:43.070Z,16.07
2023-05-04T20:22:10.961Z,11.47
2023-05-04T20:24:37.688Z,9.43
2023-05-04T20:27:04.762Z,13.30
2023-05-04T20:29:32.218Z,9.90
2023-05-04T20:32:01.383Z,14.03
2023-05-04T20:34:28.516Z,13.70
2023-05-04T20:36:55.652Z,14.93
2023-05-04T20:39:22.744Z,11.50
2023-05-04T20:41:49.843Z,16.77
2023-05-04T20:44:17.487Z,11.50
2023-05-04T20:46:45.216Z,10.93
2023-05-04T20:49:12.603Z,16.53
2023-05-04T20:51:39.610Z,11.60
2023-05-04T20:54:06.384Z,13.43
2023-05-04T20:56:33.277Z,10.63
2023-05-04T20:59:00.116Z,12.30
2023-05-04T21:01:29.947Z,11.77
2023-05-04T21:03:56.961Z,13.70
2023-05-04T21:06:24.641Z,14.57
2023-05-04T21:08:51.633Z,13.83
2023-05-04T21:11:18.696Z,16.13
2023-05-04T21:13:45.458Z,11.47
2023-05-04T21:16:12.487Z,13.00
2023-05-04T21:18:39.318Z,10.97
2023-05-04T21:21:06.389Z,9.63
2023-05-04T21:23:33.360Z,12.70
2023-05-04T21:26:04.090Z,15.43
2023-05-04T21:28:31.895Z,12.77
2023-05-04T21:30:59.028Z,10.57
2023-05-04T21:33:26.069Z,10.83
2023-05-04T21:35:52.914Z,11.73
2023-05-04T21:38:21.882Z,10.23
2023-05-04T21:40:49.216Z,10.53
2023-05-04T21:43:16.145Z,10.20
2023-05-04T21:45:43.022Z,9.60
2023-05-04T21:48:09.981Z,12.57
2023-05-04T21:50:37.154Z,8.67
2023-05-04T21:53:03.940Z,8.90
2023-05-04T21:55:30.694Z,10.33
2023-05-04T21:57:59.822Z,10.90
2023-05-04T22:00:26.877Z,8.73
2023-05-04T22:02:55.070Z,9.17
2023-05-04T22:05:22.657Z,12.07
2023-05-04T22:07:50.325Z,10.73
2023-05-04T22:10:18.152Z,8.37
2023-05-04T22:12:45.741Z,9.10
2023-05-04T22:15:12.817Z,12.13
2023-05-04T22:17:39.696Z,9.80
2023-05-04T22:20:07.628Z,11.03
2023-05-04T22:22:35.744Z,12.73
2023-05-04T22:25:02.612Z,11.37
2023-05-04T22:27:29.392Z,10.30
2023-05-04T22:29:56.244Z,12.83
2023-05-04T22:32:23.135Z,11.93
2023-05-04T22:34:49.977Z,9.57
2023-05-04T22:37:16.796Z,8.80
2023-05-04T22:39:43.566Z,9.30
2023-05-04T22:42:10.373Z,11.07
2023-05-04T22:44:37.201Z,8.57
2023-05-04T22:47:04.261Z,15.13
2023-05-04T22:49:31.094Z,8.73
2023-05-04T22:51:57.941Z,8.63
2023-05-04T22:54:24.658Z,8.73
2023-05-04T22:56:51.769Z,11.10
2023-05-04T22:59:18.463Z,12.17
2023-05-04T23:01:45.373Z,10.23
2023-05-04T23:04:12.234Z,11.50
2023-05-04T23:06:39.085Z,10.87
2023-05-04T23:09:05.828Z,11.30
2023-05-04T23:11:33.380Z,11.20
2023-05-04T23:14:00.138Z,11.73
2023-05-04T23:16:27.014Z,12.60
2023-05-04T23:18:53.805Z,7.67
2023-05-04T23:21:20.899Z,10.33
2023-05-04T23:23:49.720Z,12.27
2023-05-04T23:26:16.716Z,9.27
2023-05-04T23:28:43.544Z,9.33
2023-05-04T23:31:11.398Z,10.57
2023-05-04T23:33:38.268Z,9.63
2023-05-04T23:36:05.203Z,9.63
2023-05-04T23:38:32.028Z,10.63
2023-05-04T23:40:58.920Z,13.90
2023-05-04T23:43:25.640Z,11.87
2023-05-04T23:46:00.590Z,12.53
2023-05-04T23:48:28.256Z,10.33
2023-05-04T23:50:58.330Z,10.27
2023-05-04T23:53:26.154Z,13.77
2023-05-04T23:56:04.334Z,13.70
2023-05-04T23:58:37.162Z,12.77
